Time;durP1;ratioP1;P1;durP2;ratioP2;P2;SDS_P1;SDS_P2;PMS_P1;PMS_P2;Temp;Humidity;BMP_temperature;BMP_pressure;BME280_temperature;BME280_humidity;BME280_pressure;Samples;Min_cycle;Max_cycle;Signal;HPM_P1;HPM_P2
2021/07/12 00:00:13;;;;;;;21.50;9.97;;;14.10;99.90;;;;;;5029785;28;20053;-86
2021/07/12 00:02:40;;;;;;;17.05;9.95;;;14.10;99.90;;;;;;5020007;28;20268;-86
2021/07/12 00:05:08;;;;;;;17.27;10.07;;;14.00;99.90;;;;;;5014465;28;20045;-85
2021/07/12 00:07:35;;;;;;;17.50;11.00;;;14.00;99.90;;;;;;5030895;28;20046;-86
2021/07/12 00:10:05;;;;;;;17.40;11.15;;;14.00;99.90;;;;;;5016836;28;20047;-86
2021/07/12 00:12:31;;;;;;;18.73;10.82;;;14.00;99.90;;;;;;5014886;28;20082;-85
2021/07/12 00:14:59;;;;;;;22.80;10.73;;;13.90;99.90;;;;;;5007946;28;20061;-86
2021/07/12 00:17:26;;;;;;;21.48;10.80;;;13.90;99.90;;;;;;5016197;28;20068;-86
2021/07/12 00:19:53;;;;;;;23.50;11.52;;;13.90;99.90;;;;;;5027991;28;20038;-85
2021/07/12 00:22:20;;;;;;;17.95;11.50;;;13.90;99.90;;;;;;5026867;28;20046;-85
2021/07/12 00:24:47;;;;;;;22.38;11.50;;;13.80;99.90;;;;;;5023365;28;20483;-85
2021/07/12 00:27:14;;;;;;;19.52;11.25;;;13.80;99.90;;;;;;5027181;28;20487;-85
2021/07/12 00:29:41;;;;;;;19.88;11.00;;;13.80;99.90;;;;;;5012741;28;20045;-85
2021/07/12 00:32:08;;;;;;;18.60;10.82;;;13.70;99.90;;;;;;5016695;28;20049;-86
2021/07/12 00:34:36;;;;;;;22.65;10.57;;;13.70;99.90;;;;;;5017838;28;20129;-85
2021/07/12 00:37:03;;;;;;;20.27;10.38;;;13.70;99.90;;;;;;5012264;28;20052;-86
2021/07/12 00:39:30;;;;;;;18.10;10.07;;;13.70;99.90;;;;;;5028020;28;20387;-85
2021/07/12 00:41:57;;;;;;;20.13;10.48;;;13.70;99.90;;;;;;5029750;28;20045;-86
2021/07/12 00:44:26;;;;;;;16.65;10.15;;;13.60;99.90;;;;;;5012459;28;20060;-85
2021/07/12 00:46:55;;;;;;;18.45;10.10;;;13.60;99.90;;;;;;5008031;28;20057;-85
2021/07/12 00:49:22;;;;;;;19.42;9.90;;;13.60;99.90;;;;;;5010488;28;20045;-86
2021/07/12 00:51:49;;;;;;;18.70;9.65;;;13.50;99.90;;;;;;5003457;28;20057;-85
2021/07/12 00:54:17;;;;;;;20.40;9.75;;;13.50;99.90;;;;;;5023419;28;20497;-85
2021/07/12 00:56:44;;;;;;;20.00;10.90;;;13.50;99.90;;;;;;5026073;28;20395;-85
2021/07/12 00:59:11;;;;;;;18.80;9.68;;;13.40;99.90;;;;;;5017402;28;20108;-85
2021/07/12 01:01:38;;;;;;;12.30;8.82;;;13.40;99.90;;;;;;5016633;28;20052;-85
2021/07/12 01:04:06;;;;;;;17.67;9.10;;;13.40;99.90;;;;;;5013003;28;20056;-85
2021/07/12 01:06:33;;;;;;;21.13;8.63;;;13.40;99.90;;;;;;5023502;28;20038;-85
2021/07/12 01:09:00;;;;;;;17.08;8.82;;;13.40;99.90;;;;;;5011305;28;20041;-85
2021/07/12 01:11:35;;;;;;;20.33;9.48;;;13.30;99.90;;;;;;5014695;28;20475;-85
2021/07/12 01:14:18;;;;;;;17.58;8.32;;;13.30;99.90;;;;;;5027968;28;20056;-85
2021/07/12 01:16:48;;;;;;;16.67;8.48;;;13.30;99.90;;;;;;5014326;28;20045;-85
2021/07/12 01:19:28;;;;;;;17.77;8.30;;;13.30;99.90;;;;;;5009861;28;20057;-85
2021/07/12 01:22:16;;;;;;;16.10;8.40;;;13.30;99.90;;;;;;5008726;28;20056;-86
2021/07/12 01:25:18;;;;;;;17.92;8.57;;;13.30;99.90;;;;;;5028593;28;20049;-85
2021/07/12 01:27:51;;;;;;;15.43;7.88;;;13.20;99.90;;;;;;5003081;28;20041;-85
2021/07/12 01:30:54;;;;;;;19.92;8.65;;;13.20;99.90;;;;;;5010419;28;20037;-85
2021/07/12 01:33:30;;;;;;;15.13;8.10;;;13.20;99.90;;;;;;5004881;28;20051;-85
2021/07/12 01:36:20;;;;;;;18.80;7.88;;;13.20;99.90;;;;;;5005236;28;20060;-85
2021/07/12 01:39:04;;;;;;;15.00;7.53;;;13.10;99.90;;;;;;5010371;28;20048;-85
2021/07/12 01:42:08;;;;;;;19.05;8.25;;;13.10;99.90;;;;;;5025532;28;20067;-85
2021/07/12 01:44:58;;;;;;;21.33;7.78;;;13.10;99.90;;;;;;4958117;28;20065;-85
2021/07/12 01:47:54;;;;;;;17.63;7.72;;;13.10;99.90;;;;;;4961247;28;20043;-85
2021/07/12 01:50:30;;;;;;;18.75;7.65;;;13.10;99.90;;;;;;4948672;28;20061;-85
2021/07/12 01:53:15;;;;;;;15.70;7.45;;;13.10;99.90;;;;;;4953149;28;20057;-85
2021/07/12 01:55:48;;;;;;;18.05;7.50;;;13.00;99.90;;;;;;4972342;28;20446;-85
2021/07/12 01:58:35;;;;;;;17.52;8.52;;;13.00;99.90;;;;;;4956149;28;20057;-85
2021/07/12 02:01:03;;;;;;;19.20;8.15;;;13.00;99.90;;;;;;4953106;28;20394;-85
2021/07/12 02:03:32;;;;;;;15.77;8.37;;;13.00;99.90;;;;;;4948923;28;20047;-85
2021/07/12 02:06:03;;;;;;;15.10;8.98;;;12.90;99.90;;;;;;4967461;28;20141;-85
2021/07/12 02:08:32;;;;;;;17.00;8.88;;;12.90;99.90;;;;;;4951980;28;20405;-85
2021/07/12 02:10:59;;;;;;;14.07;8.05;;;12.90;99.90;;;;;;4967201;28;20054;-85
2021/07/12 02:13:28;;;;;;;14.20;9.38;;;12.90;99.90;;;;;;4969105;28;20381;-85
2021/07/12 02:15:58;;;;;;;19.27;9.55;;;12.90;99.90;;;;;;4967083;28;20047;-85
2021/07/12 02:18:27;;;;;;;19.52;9.35;;;12.90;99.90;;;;;;4973352;28;20095;-85
2021/07/12 02:20:56;;;;;;;17.92;8.95;;;12.90;99.90;;;;;;5023496;28;20041;-85
2021/07/12 02:23:23;;;;;;;;;;;12.90;99.90;;;;;;5008390;28;20049;-85
2021/07/12 02:25:52;;;;;;;19.95;10.25;;;12.90;99.90;;;;;;5011634;28;19933;-85
2021/07/12 02:28:21;;;;;;;20.55;10.57;;;12.90;99.90;;;;;;5016980;28;20053;-85
2021/07/12 02:30:50;;;;;;;27.45;11.80;;;12.90;99.90;;;;;;5014326;28;20308;-84
2021/07/12 02:33:18;;;;;;;19.55;11.18;;;12.90;99.90;;;;;;5016430;28;20056;-85
2021/07/12 02:35:46;;;;;;;24.50;12.35;;;12.90;99.90;;;;;;5015377;28;20062;-85
2021/07/12 02:38:13;;;;;;;28.35;12.60;;;12.90;99.90;;;;;;5031736;28;20049;-85
2021/07/12 02:40:41;;;;;;;28.95;13.52;;;12.90;99.90;;;;;;5012240;28;20052;-85
2021/07/12 02:43:09;;;;;;;30.48;11.80;;;12.90;99.90;;;;;;5011231;28;20057;-85
2021/07/12 02:45:37;;;;;;;27.52;12.02;;;13.00;99.90;;;;;;5013862;28;20049;-85
2021/07/12 02:48:05;;;;;;;25.67;10.90;;;13.00;99.90;;;;;;5012295;28;20045;-85
2021/07/12 02:50:33;;;;;;;23.92;10.80;;;12.90;99.90;;;;;;5014511;28;20041;-85
2021/07/12 02:53:28;;;;;;;23.60;12.45;;;13.00;99.90;;;;;;5015903;28;20479;-85
2021/07/12 02:55:56;;;;;;;26.38;11.68;;;13.00;99.90;;;;;;5017559;28;20130;-85
2021/07/12 02:58:23;;;;;;;27.52;12.18;;;13.00;99.90;;;;;;5010781;28;20045;-85
2021/07/12 03:00:51;;;;;;;26.05;12.55;;;13.00;99.90;;;;;;5020728;28;20060;-85
2021/07/12 03:03:18;;;;;;;30.17;11.18;;;13.00;99.90;;;;;;5013374;28;20557;-85
2021/07/12 03:05:48;;;;;;;25.50;11.73;;;13.00;99.90;;;;;;5016970;28;20166;-85
2021/07/12 03:08:26;;;;;;;23.55;11.65;;;13.00;99.90;;;;;;5032285;28;20494;-85
2021/07/12 03:10:59;;;;;;;25.50;11.45;;;13.10;99.90;;;;;;5021609;28;20048;-85
2021/07/12 03:13:43;;;;;;;21.50;9.75;;;13.00;99.90;;;;;;5026956;28;20045;-85
2021/07/12 03:16:13;;;;;;;20.80;10.05;;;13.10;99.90;;;;;;5019593;28;20064;-85
2021/07/12 03:18:52;;;;;;;25.85;10.23;;;13.10;99.90;;;;;;5025928;28;20452;-85
2021/07/12 03:21:22;;;;;;;19.48;8.43;;;13.10;99.90;;;;;;5013626;28;20049;-85
2021/07/12 03:23:53;;;;;;;20.83;7.68;;;13.10;99.90;;;;;;5028058;28;20491;-85
2021/07/12 03:26:21;;;;;;;20.40;6.65;;;13.10;99.90;;;;;;5009325;28;20052;-85
2021/07/12 03:28:52;;;;;;;13.68;6.40;;;13.20;99.90;;;;;;5006482;28;20049;-85
2021/07/12 03:31:25;;;;;;;21.23;7.60;;;13.20;99.90;;;;;;5011641;28;20049;-85
2021/07/12 03:33:55;;;;;;;20.50;7.63;;;13.20;99.90;;;;;;5005231;28;20121;-84
2021/07/12 03:36:23;;;;;;;15.07;7.65;;;13.20;99.90;;;;;;4992426;28;20041;-85
2021/07/12 03:38:52;;;;;;;20.50;7.28;;;13.20;99.90;;;;;;4994524;28;20046;-85
2021/07/12 03:41:19;;;;;;;20.73;8.15;;;13.30;99.90;;;;;;5010108;28;20495;-85
2021/07/12 03:43:46;;;;;;;18.63;8.05;;;13.30;99.90;;;;;;4992726;28;20045;-85
2021/07/12 03:46:13;;;;;;;17.85;8.38;;;13.30;99.90;;;;;;4994409;28;20046;-85
2021/07/12 03:48:43;;;;;;;22.05;8.93;;;13.30;99.90;;;;;;4998601;28;20399;-85
2021/07/12 03:51:30;;;;;;;22.98;8.80;;;13.40;99.90;;;;;;4991690;28;20364;-85
2021/07/12 03:53:57;;;;;;;19.00;8.38;;;13.40;99.90;;;;;;4978288;28;20101;-85
2021/07/12 03:56:25;;;;;;;17.33;8.27;;;13.40;99.90;;;;;;4994235;28;20375;-85
2021/07/12 03:58:52;;;;;;;13.95;8.18;;;13.40;99.90;;;;;;4996940;28;20046;-85
2021/07/12 04:01:20;;;;;;;26.95;8.57;;;13.40;99.90;;;;;;4994989;28;20050;-85
2021/07/12 04:03:51;;;;;;;23.55;8.35;;;13.40;99.90;;;;;;4997584;28;20499;-85
2021/07/12 04:06:18;;;;;;;21.08;9.80;;;13.50;99.90;;;;;;4985461;28;20124;-85
2021/07/12 04:08:45;;;;;;;21.05;8.50;;;13.50;99.90;;;;;;4992837;28;20050;-85
2021/07/12 04:11:14;;;;;;;20.63;8.65;;;13.50;99.90;;;;;;5010159;28;20049;-85
2021/07/12 04:13:41;;;;;;;26.33;9.57;;;13.50;99.90;;;;;;4995621;28;20046;-85
2021/07/12 04:16:09;;;;;;;18.58;8.82;;;13.50;99.90;;;;;;4991692;28;20038;-85
2021/07/12 04:18:36;;;;;;;22.08;8.68;;;13.50;99.90;;;;;;5010754;28;20045;-85
2021/07/12 04:21:03;;;;;;;20.02;8.73;;;13.50;99.90;;;;;;4994309;28;20046;-85
2021/07/12 04:23:31;;;;;;;22.65;10.23;;;13.50;99.90;;;;;;4991426;28;20072;-85
2021/07/12 04:25:58;;;;;;;29.05;9.85;;;13.60;99.90;;;;;;5016751;28;20478;-85
2021/07/12 04:28:25;;;;;;;23.33;9.00;;;13.60;99.90;;;;;;4995785;28;20038;-85
2021/07/12 04:30:52;;;;;;;24.65;10.05;;;13.60;99.90;;;;;;4996232;28;20045;-86
2021/07/12 04:33:19;;;;;;;25.45;10.73;;;13.60;99.90;;;;;;4991845;28;20048;-85
2021/07/12 04:35:46;;;;;;;24.63;10.55;;;13.60;99.90;;;;;;5010562;28;20050;-85
2021/07/12 04:38:13;;;;;;;31.35;11.75;;;13.60;99.90;;;;;;4993473;28;20053;-85
2021/07/12 04:40:40;;;;;;;24.25;10.85;;;13.70;99.90;;;;;;4995351;28;20038;-85
2021/07/12 04:43:07;;;;;;;26.25;11.55;;;13.60;99.90;;;;;;4988591;28;20060;-85
2021/07/12 04:45:35;;;;;;;33.90;11.98;;;13.70;99.90;;;;;;4994378;28;20061;-85
2021/07/12 04:48:02;;;;;;;28.10;11.35;;;13.70;99.90;;;;;;4995236;28;20447;-85
2021/07/12 04:50:29;;;;;;;27.83;10.90;;;13.70;99.90;;;;;;5010892;28;20046;-85
2021/07/12 04:52:56;;;;;;;28.55;12.20;;;13.70;99.90;;;;;;4992460;28;20064;-85
2021/07/12 04:55:23;;;;;;;25.02;11.45;;;13.70;99.90;;;;;;5009864;28;20400;-85
2021/07/12 04:57:54;;;;;;;23.92;11.02;;;13.70;99.90;;;;;;4994465;28;20079;-85
2021/07/12 05:00:22;;;;;;;30.27;11.60;;;13.70;99.90;;;;;;5009049;28;20042;-86
2021/07/12 05:02:49;;;;;;;21.63;11.23;;;13.80;99.90;;;;;;5012261;28;20054;-85
2021/07/12 05:05:16;;;;;;;31.08;10.95;;;13.80;99.90;;;;;;5010675;28;20046;-86
2021/07/12 05:07:44;;;;;;;24.60;11.10;;;13.80;99.90;;;;;;4994743;28;20046;-86
2021/07/12 05:10:11;;;;;;;26.58;10.57;;;13.80;99.90;;;;;;4990913;28;20048;-86
2021/07/12 05:12:39;;;;;;;22.30;10.37;;;13.80;99.90;;;;;;4992626;28;20125;-85
2021/07/12 05:15:08;;;;;;;27.73;10.23;;;13.90;99.90;;;;;;4993956;28;20045;-85
2021/07/12 05:17:36;;;;;;;25.52;9.55;;;13.90;99.90;;;;;;4993553;28;20536;-85
2021/07/12 05:20:05;;;;;;;25.60;9.30;;;13.90;99.90;;;;;;4994955;28;20488;-85
2021/07/12 05:22:32;;;;;;;;;;;14.00;99.90;;;;;;4994588;28;20045;-86
2021/07/12 05:25:00;;;;;;;18.25;8.88;;;14.00;99.90;;;;;;4992770;28;19988;-85
2021/07/12 05:27:27;;;;;;;18.38;9.82;;;14.00;99.90;;;;;;4990984;28;20046;-85
2021/07/12 05:29:54;;;;;;;22.00;9.07;;;14.00;99.90;;;;;;5009941;28;20443;-86
2021/07/12 05:32:21;;;;;;;18.83;9.05;;;14.10;99.90;;;;;;5006904;28;20050;-86
2021/07/12 05:34:48;;;;;;;20.30;9.07;;;14.10;99.90;;;;;;5021008;28;20045;-86
2021/07/12 05:37:15;;;;;;;22.95;10.35;;;14.10;99.90;;;;;;5028307;28;20042;-86
2021/07/12 05:39:42;;;;;;;21.65;10.65;;;14.10;99.90;;;;;;5018924;28;20369;-87
2021/07/12 05:42:09;;;;;;;27.17;11.20;;;14.10;99.90;;;;;;5028108;28;20045;-86
2021/07/12 05:44:36;;;;;;;22.00;11.30;;;14.10;99.90;;;;;;5011032;28;20041;-86
2021/07/12 05:47:03;;;;;;;20.20;12.15;;;14.10;99.90;;;;;;5013840;28;20078;-86
2021/07/12 05:49:30;;;;;;;22.58;11.55;;;14.10;99.90;;;;;;5029447;28;20120;-86
2021/07/12 05:51:57;;;;;;;24.73;12.73;;;14.10;99.90;;;;;;5013604;28;20049;-85
2021/07/12 05:54:24;;;;;;;27.40;12.82;;;14.10;99.90;;;;;;5010073;28;20371;-85
2021/07/12 05:56:51;;;;;;;24.10;12.23;;;14.20;99.90;;;;;;5013670;28;20068;-85
2021/07/12 05:59:18;;;;;;;23.08;13.32;;;14.20;99.90;;;;;;5001729;28;20049;-85
2021/07/12 06:01:50;;;;;;;30.20;13.65;;;14.10;99.90;;;;;;5012320;28;20132;-85
2021/07/12 06:04:18;;;;;;;22.40;12.85;;;14.20;99.90;;;;;;5010780;28;20053;-85
2021/07/12 06:06:45;;;;;;;24.58;12.82;;;14.20;99.90;;;;;;5014379;28;20041;-85
2021/07/12 06:09:12;;;;;;;23.80;13.18;;;14.20;99.90;;;;;;5014878;28;20371;-85
2021/07/12 06:11:39;;;;;;;24.85;13.27;;;14.20;99.90;;;;;;5015491;28;20045;-85
2021/07/12 06:14:06;;;;;;;24.50;13.23;;;14.30;99.90;;;;;;5031137;28;20049;-85
2021/07/12 06:16:33;;;;;;;22.52;12.95;;;14.30;99.90;;;;;;5009640;28;20046;-85
2021/07/12 06:19:00;;;;;;;23.05;13.20;;;14.30;99.90;;;;;;5005603;28;20053;-85
2021/07/12 06:21:27;;;;;;;20.77;12.25;;;14.40;99.90;;;;;;5013880;28;20057;-85
2021/07/12 06:23:58;;;;;;;18.10;11.73;;;14.40;99.90;;;;;;5015117;28;20046;-90
2021/07/12 06:26:27;;;;;;;20.85;13.07;;;14.50;99.90;;;;;;5012073;28;20045;-85
2021/07/12 06:28:54;;;;;;;25.73;12.45;;;14.50;99.90;;;;;;5014716;28;20053;-85
2021/07/12 06:31:21;;;;;;;25.48;12.30;;;14.60;99.90;;;;;;5032082;28;20144;-86
2021/07/12 06:33:48;;;;;;;18.60;12.25;;;14.70;99.90;;;;;;5011505;28;20060;-85
2021/07/12 06:36:15;;;;;;;19.20;11.88;;;14.90;99.90;;;;;;5014463;28;20060;-86
2021/07/12 06:38:42;;;;;;;18.27;10.15;;;14.90;99.90;;;;;;5017002;28;20053;-85
2021/07/12 06:41:09;;;;;;;16.15;9.55;;;14.90;99.90;;;;;;5015425;28;20053;-85
2021/07/12 06:43:36;;;;;;;12.80;9.88;;;15.00;99.90;;;;;;5016071;28;20051;-85
2021/07/12 06:46:03;;;;;;;12.95;8.68;;;15.00;99.90;;;;;;5016306;28;20045;-85
2021/07/12 06:48:30;;;;;;;15.60;9.18;;;15.10;99.90;;;;;;5030132;28;20096;-85
2021/07/12 06:50:57;;;;;;;14.65;9.85;;;15.10;99.90;;;;;;5001391;28;20041;-85
2021/07/12 06:53:33;;;;;;;18.95;8.77;;;15.10;99.90;;;;;;5018628;28;20072;-85
2021/07/12 06:56:01;;;;;;;20.55;9.85;;;15.10;99.90;;;;;;5021878;28;20060;-85
2021/07/12 06:58:28;;;;;;;17.17;9.38;;;15.10;99.90;;;;;;5020151;28;20041;-85
2021/07/12 07:00:56;;;;;;;13.90;9.35;;;15.10;99.90;;;;;;5021076;28;20049;-85
2021/07/12 07:03:23;;;;;;;21.05;10.18;;;15.10;99.90;;;;;;5009147;28;20043;-85
2021/07/12 07:05:50;;;;;;;13.93;8.93;;;15.10;99.90;;;;;;4997710;28;20408;-85
2021/07/12 07:08:17;;;;;;;17.85;8.63;;;15.10;99.90;;;;;;5029012;28;20060;-85
2021/07/12 07:10:44;;;;;;;13.18;8.25;;;15.20;99.90;;;;;;5032481;28;20049;-85
2021/07/12 07:13:10;;;;;;;10.90;5.80;;;15.20;99.90;;;;;;5019150;28;20060;-85
2021/07/12 07:15:37;;;;;;;11.25;5.40;;;15.30;99.90;;;;;;5015972;28;20041;-85
2021/07/12 07:18:05;;;;;;;11.20;5.20;;;15.30;99.90;;;;;;5012272;28;20045;-86
2021/07/12 07:20:32;;;;;;;9.43;4.88;;;15.20;99.90;;;;;;5007032;28;20391;-85
2021/07/12 07:22:59;;;;;;;12.07;4.80;;;15.20;99.90;;;;;;5024409;28;20050;-85
2021/07/12 07:25:26;;;;;;;13.07;4.78;;;15.20;99.90;;;;;;5023878;28;20053;-86
2021/07/12 07:27:54;;;;;;;13.13;4.95;;;15.30;99.90;;;;;;5019084;28;20049;-85
2021/07/12 07:30:22;;;;;;;9.95;4.60;;;15.40;99.90;;;;;;5013666;28;20064;-85
2021/07/12 07:32:49;;;;;;;10.25;5.07;;;15.50;99.90;;;;;;5015889;28;20490;-86
2021/07/12 07:35:17;;;;;;;12.13;4.45;;;15.60;99.90;;;;;;5013617;28;20055;-85
2021/07/12 07:37:46;;;;;;;10.40;4.82;;;15.80;99.90;;;;;;5005268;28;20128;-85
2021/07/12 07:40:16;;;;;;;7.93;3.65;;;15.80;99.90;;;;;;5006888;28;20375;-86
2021/07/12 07:42:43;;;;;;;7.22;3.90;;;16.00;99.90;;;;;;5012747;28;20041;-86
2021/07/12 07:45:14;;;;;;;8.50;3.47;;;16.20;99.90;;;;;;5029563;28;20055;-85
2021/07/12 07:47:44;;;;;;;5.32;2.83;;;16.40;99.90;;;;;;5030675;28;20119;-85
2021/07/12 07:50:20;;;;;;;12.75;3.00;;;16.60;99.90;;;;;;5006362;28;20049;-86
2021/07/12 07:52:48;;;;;;;8.40;2.80;;;16.70;99.90;;;;;;5007748;28;20103;-86
2021/07/12 07:55:15;;;;;;;5.25;2.80;;;16.70;99.90;;;;;;5022545;28;20045;-85
2021/07/12 07:57:42;;;;;;;9.70;2.67;;;16.70;99.90;;;;;;5008057;28;20122;-85
2021/07/12 08:00:16;;;;;;;8.95;2.97;;;16.60;99.90;;;;;;5008726;28;21401;-85
2021/07/12 08:02:43;;;;;;;7.18;2.90;;;16.50;99.90;;;;;;5005072;28;20052;-85
2021/07/12 08:05:10;;;;;;;7.25;2.83;;;16.40;99.90;;;;;;5005254;28;20298;-85
2021/07/12 08:07:38;;;;;;;6.55;2.83;;;16.40;99.90;;;;;;5003903;28;20068;-85
2021/07/12 08:10:08;;;;;;;6.80;2.97;;;16.30;99.90;;;;;;5026916;28;20446;-85
2021/07/12 08:12:35;;;;;;;7.43;3.17;;;16.30;99.90;;;;;;5012445;28;20284;-84
2021/07/12 08:15:05;;;;;;;8.38;2.95;;;16.30;99.90;;;;;;5008371;28;20050;-85
2021/07/12 08:17:32;;;;;;;6.57;2.53;;;16.40;99.90;;;;;;5011842;28;20041;-85
2021/07/12 08:19:59;;;;;;;5.85;2.35;;;16.50;99.90;;;;;;5007414;28;20483;-86
2021/07/12 08:22:44;;;;;;;6.07;1.63;;;16.60;99.90;;;;;;5014371;28;20055;-85
2021/07/12 08:25:12;;;;;;;4.90;2.42;;;16.80;99.90;;;;;;5027231;28;20052;-86
2021/07/12 08:27:39;;;;;;;9.13;2.88;;;16.90;99.90;;;;;;5012102;28;20238;-85
2021/07/12 08:30:08;;;;;;;6.97;2.42;;;16.90;99.90;;;;;;5007540;28;20105;-85
2021/07/12 08:32:35;;;;;;;5.85;2.45;;;16.90;99.90;;;;;;5006222;28;20051;-85
2021/07/12 08:35:03;;;;;;;4.45;2.50;;;16.70;99.90;;;;;;5003682;28;20483;-85
2021/07/12 08:37:31;;;;;;;6.53;3.10;;;16.70;99.90;;;;;;5008454;28;20049;-85
2021/07/12 08:39:58;;;;;;;5.47;2.30;;;16.50;99.90;;;;;;4991089;28;20042;-86
2021/07/12 08:42:26;;;;;;;5.45;2.60;;;16.50;99.90;;;;;;4991269;28;20057;-85
2021/07/12 08:44:54;;;;;;;5.13;2.95;;;16.40;99.90;;;;;;4991315;28;20057;-85
2021/07/12 08:47:21;;;;;;;7.55;2.90;;;16.30;99.90;;;;;;5009825;28;20053;-85
2021/07/12 08:49:48;;;;;;;5.38;3.05;;;16.30;99.90;;;;;;4986097;28;20061;-85
2021/07/12 08:52:16;;;;;;;11.00;2.80;;;16.30;99.90;;;;;;4994364;28;20049;-85
2021/07/12 08:54:44;;;;;;;5.90;2.90;;;16.30;99.90;;;;;;5006595;28;20042;-85
2021/07/12 08:57:11;;;;;;;7.05;3.00;;;16.20;99.90;;;;;;4990308;28;20050;-86
2021/07/12 08:59:42;;;;;;;7.47;3.22;;;16.20;99.90;;;;;;4990444;28;20575;-85
2021/07/12 09:02:19;;;;;;;7.05;3.63;;;16.20;99.90;;;;;;4992490;28;20054;-85
2021/07/12 09:04:50;;;;;;;5.15;2.53;;;16.20;99.90;;;;;;4989959;28;20531;-85
2021/07/12 09:07:21;;;;;;;5.25;3.05;;;16.40;99.90;;;;;;5005433;28;20388;-85
2021/07/12 09:10:01;;;;;;;4.72;2.10;;;16.70;99.90;;;;;;4989263;28;20072;-85
2021/07/12 09:12:40;;;;;;;3.78;2.22;;;16.90;99.90;;;;;;4988851;28;20057;-85
2021/07/12 09:15:12;;;;;;;6.43;2.22;;;17.20;99.90;;;;;;4988571;28;20057;-85
2021/07/12 09:17:42;;;;;;;5.65;1.88;;;17.40;99.90;;;;;;5005189;28;20041;-85
2021/07/12 09:20:11;;;;;;;4.25;1.98;;;17.30;99.90;;;;;;4989186;28;20105;-85
2021/07/12 09:22:40;;;;;;;5.88;2.08;;;17.20;99.90;;;;;;4987446;28;20064;-85
2021/07/12 09:25:10;;;;;;;4.25;2.08;;;17.10;99.90;;;;;;4985563;28;20119;-85
2021/07/12 09:27:40;;;;;;;5.47;2.03;;;17.20;99.90;;;;;;4986233;28;20056;-84
2021/07/12 09:30:18;;;;;;;4.03;2.00;;;17.30;99.90;;;;;;4986989;28;20037;-85
2021/07/12 09:32:47;;;;;;;4.35;1.70;;;17.50;99.90;;;;;;4985743;28;20532;-85
2021/07/12 09:35:17;;;;;;;4.75;1.90;;;17.60;99.90;;;;;;5002226;28;20041;-85
2021/07/12 09:37:48;;;;;;;3.67;1.38;;;17.80;99.90;;;;;;4995514;28;20049;-85
2021/07/12 09:40:18;;;;;;;6.43;1.58;;;17.80;99.90;;;;;;5005239;28;20050;-85
2021/07/12 09:42:50;;;;;;;4.15;1.30;;;17.80;99.90;;;;;;5008898;28;20053;-84
2021/07/12 09:45:22;;;;;;;4.82;1.52;;;17.90;99.90;;;;;;5001722;28;20460;-85
2021/07/12 09:47:50;;;;;;;4.18;1.70;;;17.90;99.90;;;;;;5011858;28;20061;-85
2021/07/12 09:50:22;;;;;;;6.85;1.60;;;18.00;99.90;;;;;;5009509;28;20398;-85
2021/07/12 09:52:59;;;;;;;4.35;1.50;;;17.90;99.90;;;;;;5011034;28;20128;-86
2021/07/12 09:55:26;;;;;;;3.15;1.40;;;17.90;99.90;;;;;;5010401;28;20046;-85
2021/07/12 09:58:13;;;;;;;5.32;1.50;;;17.80;99.90;;;;;;5011967;28;20049;-85
2021/07/12 10:00:47;;;;;;;3.25;1.30;;;17.90;99.90;;;;;;5026853;28;20046;-85
2021/07/12 10:03:19;;;;;;;5.85;1.30;;;18.00;99.90;;;;;;5011242;28;20034;-85
2021/07/12 10:05:48;;;;;;;5.93;1.40;;;18.00;99.90;;;;;;5012488;28;20046;-85
2021/07/12 10:08:15;;;;;;;3.53;1.00;;;18.20;99.90;;;;;;5011621;28;20053;-85
2021/07/12 10:10:43;;;;;;;3.30;1.15;;;18.30;99.90;;;;;;5009910;28;20129;-85
2021/07/12 10:13:11;;;;;;;4.63;1.35;;;18.50;99.90;;;;;;5022684;28;20099;-84
2021/07/12 10:15:39;;;;;;;2.75;1.10;;;18.60;99.90;;;;;;5002337;28;20060;-85
2021/07/12 10:18:07;;;;;;;3.95;1.20;;;18.50;99.90;;;;;;5028304;28;20674;-84
2021/07/12 10:20:35;;;;;;;3.60;1.53;;;18.60;99.90;;;;;;5029575;28;20080;-85
2021/07/12 10:23:03;;;;;;;;;;;18.50;99.90;;;;;;5012756;28;20761;-87
2021/07/12 10:25:32;;;;;;;2.57;1.30;;;18.50;99.90;;;;;;5006248;28;19936;-84
2021/07/12 10:28:07;;;;;;;5.03;2.15;;;18.60;99.90;;;;;;5006945;28;20045;-86
2021/07/12 10:30:37;;;;;;;3.42;1.10;;;18.50;99.90;;;;;;5011232;28;20544;-85
2021/07/12 10:33:07;;;;;;;4.25;1.00;;;18.60;99.90;;;;;;5029046;28;20041;-85
2021/07/12 10:35:37;;;;;;;2.67;1.27;;;18.50;99.90;;;;;;5008305;28;20042;-86
2021/07/12 10:38:04;;;;;;;2.63;1.10;;;18.50;99.90;;;;;;5026497;28;20045;-85
2021/07/12 10:40:53;;;;;;;2.92;1.00;;;18.40;99.90;;;;;;5009977;28;20041;-86
2021/07/12 10:43:33;;;;;;;2.50;1.10;;;18.50;99.90;;;;;;5006430;28;20056;-85
2021/07/12 10:46:00;;;;;;;4.45;0.98;;;18.60;99.90;;;;;;5005566;28;20041;-84
2021/07/12 10:48:35;;;;;;;1.77;0.73;;;18.70;99.90;;;;;;5011590;28;20041;-85
2021/07/12 10:51:22;;;;;;;4.43;1.00;;;18.80;99.90;;;;;;5027915;28;20053;-84
2021/07/12 10:54:04;;;;;;;5.73;1.33;;;19.00;99.90;;;;;;5003669;28;20057;-84
2021/07/12 10:56:48;;;;;;;2.72;1.00;;;19.10;99.90;;;;;;4998574;28;20280;-84
2021/07/12 10:59:35;;;;;;;4.18;1.45;;;19.20;99.90;;;;;;5030056;28;20140;-85
2021/07/12 11:02:24;;;;;;;4.28;1.48;;;19.30;99.90;;;;;;5025109;28;20049;-85
2021/07/12 11:05:12;;;;;;;1.85;1.00;;;19.30;99.90;;;;;;5005401;28;20763;-84
2021/07/12 11:07:41;;;;;;;1.85;0.85;;;19.30;99.90;;;;;;5022809;28;20046;-85
2021/07/12 11:10:27;;;;;;;3.72;1.20;;;19.40;99.90;;;;;;5002817;28;20045;-84
2021/07/12 11:12:59;;;;;;;5.70;0.90;;;19.60;99.90;;;;;;5021271;28;20049;-85
2021/07/12 11:15:27;;;;;;;5.30;1.45;;;19.80;99.90;;;;;;5023656;28;20050;-85
2021/07/12 11:17:57;;;;;;;2.55;1.00;;;19.70;99.90;;;;;;5006702;28;20176;-83
2021/07/12 11:20:44;;;;;;;3.38;1.20;;;19.70;99.90;;;;;;5004818;28;20053;-85
2021/07/12 11:23:39;;;;;;;3.85;1.40;;;19.60;99.90;;;;;;5004620;28;20053;-84
2021/07/12 11:26:23;;;;;;;4.28;1.30;;;19.50;99.90;;;;;;5024534;28;20048;-84
2021/07/12 11:28:59;;;;;;;5.60;1.13;;;19.30;99.90;;;;;;5008890;28;20041;-84
2021/07/12 11:31:55;;;;;;;3.88;1.02;;;19.20;99.90;;;;;;5000346;28;20049;-84
2021/07/12 11:34:34;;;;;;;3.53;0.90;;;19.10;99.90;;;;;;4980344;28;1239091;-83
2021/07/12 11:37:30;;;;;;;3.70;1.00;;;19.10;99.90;;;;;;5034246;28;20045;-84
2021/07/12 11:40:00;;;;;;;4.28;1.08;;;19.20;99.90;;;;;;5011417;28;20045;-83
2021/07/12 11:42:27;;;;;;;3.17;1.05;;;19.20;99.90;;;;;;5011285;28;20045;-84
2021/07/12 11:45:18;;;;;;;4.20;1.25;;;19.30;99.90;;;;;;5012180;28;20470;-84
2021/07/12 11:47:51;;;;;;;3.42;1.13;;;19.40;99.90;;;;;;5028169;28;20034;-84
2021/07/12 11:50:27;;;;;;;4.03;1.00;;;19.60;99.90;;;;;;5011788;28;20053;-83
2021/07/12 11:52:59;;;;;;;3.30;1.10;;;19.60;99.90;;;;;;5007575;28;20064;-84
2021/07/12 11:55:32;;;;;;;3.53;1.10;;;19.50;99.90;;;;;;5017597;28;20046;-84
2021/07/12 11:58:02;;;;;;;4.68;1.42;;;19.60;99.90;;;;;;5026018;28;20045;-84
2021/07/12 12:00:31;;;;;;;3.05;1.00;;;19.70;99.90;;;;;;5007398;28;20052;-83
2021/07/12 12:03:05;;;;;;;3.35;1.10;;;19.60;99.90;;;;;;5007248;28;20501;-84
2021/07/12 12:05:35;;;;;;;3.10;1.05;;;19.60;99.90;;;;;;5021777;28;20042;-84
2021/07/12 12:08:05;;;;;;;3.50;1.00;;;19.60;99.90;;;;;;5016286;28;20049;-84
2021/07/12 12:10:37;;;;;;;3.50;1.20;;;19.60;99.90;;;;;;5004382;28;20042;-84
2021/07/12 12:13:14;;;;;;;2.97;1.20;;;19.50;99.90;;;;;;5006976;28;20054;-83
2021/07/12 12:15:51;;;;;;;3.00;0.90;;;19.50;99.90;;;;;;5007422;28;20466;-83
2021/07/12 12:18:20;;;;;;;2.75;0.98;;;19.50;99.90;;;;;;5006730;28;20099;-84
2021/07/12 12:20:52;;;;;;;1.92;0.82;;;19.50;99.90;;;;;;5028630;28;20049;-84
2021/07/12 12:23:21;;;;;;;2.72;1.25;;;19.40;99.90;;;;;;5006083;28;20057;-84
2021/07/12 12:26:04;;;;;;;3.58;1.20;;;19.50;99.90;;;;;;5023710;28;20047;-84
2021/07/12 12:28:41;;;;;;;1.98;1.00;;;19.50;99.90;;;;;;5008965;28;20041;-83
2021/07/12 12:31:29;;;;;;;4.63;1.20;;;19.40;99.90;;;;;;5006080;28;20078;-84
2021/07/12 12:34:00;;;;;;;2.67;1.35;;;19.20;99.90;;;;;;5007154;28;20433;-84
2021/07/12 12:36:33;;;;;;;2.20;1.00;;;19.10;99.90;;;;;;5009930;28;20044;-84
2021/07/12 12:39:03;;;;;;;2.75;0.90;;;19.00;99.90;;;;;;5005923;28;20050;-84
2021/07/12 12:41:49;;;;;;;2.67;1.10;;;19.00;99.90;;;;;;5015676;28;20045;-84
2021/07/12 12:44:24;;;;;;;3.60;1.10;;;18.90;99.90;;;;;;5013195;28;20497;-85
2021/07/12 12:46:54;;;;;;;1.35;1.00;;;18.90;99.90;;;;;;5005472;28;20076;-84
2021/07/12 12:49:31;;;;;;;3.72;1.20;;;18.80;99.90;;;;;;5007591;28;20049;-84
2021/07/12 12:52:01;;;;;;;3.58;1.20;;;18.70;99.90;;;;;;5012624;28;20053;-85
2021/07/12 12:54:33;;;;;;;3.85;1.10;;;18.60;99.90;;;;;;5010892;28;20054;-84
2021/07/12 12:57:03;;;;;;;5.00;1.35;;;18.60;99.90;;;;;;5025815;28;20068;-84